Time;durP1;ratioP1;P1;durP2;ratioP2;P2;SDS_P1;SDS_P2;PMS_P1;PMS_P2;Temp;Humidity;BMP_temperature;BMP_pressure;BME280_temperature;BME280_humidity;BME280_pressure;Samples;Min_cycle;Max_cycle;Signal;HPM_P1;HPM_P2
2021/12/14 00:02:16;;;;;;;3.65;1.92;;;;;;;;;;5029887;28;20030;-65
2021/12/14 00:04:41;;;;;;;3.33;1.75;;;;;;;;;;5029365;28;20021;-65
2021/12/14 00:07:09;;;;;;;4.57;2.03;;;;;;;;;;5029679;28;20504;-65
2021/12/14 00:09:36;;;;;;;5.55;2.45;;;;;;;;;;5029544;28;20021;-64
2021/12/14 00:12:15;;;;;;;3.65;2.10;;;;;;;;;;5029521;28;20037;-66
2021/12/14 00:17:09;;;;;;;4.38;2.65;;;;;;;;;;5029825;28;20029;-66
2021/12/14 00:19:35;;;;;;;4.93;2.60;;;;;;;;;;5029302;28;20045;-66
2021/12/14 00:22:16;;;;;;;3.58;2.17;;;;;;;;;;5029515;28;20067;-64
2021/12/14 00:24:42;;;;;;;4.20;2.33;;;;;;;;;;5029824;28;20083;-65
2021/12/14 00:27:07;;;;;;;6.63;2.88;;;;;;;;;;5033235;28;20034;-64
2021/12/14 00:29:35;;;;;;;5.00;2.53;;;;;;;;;;5033673;28;20014;-65
2021/12/14 00:32:03;;;;;;;4.90;2.45;;;;;;;;;;5033135;28;20281;-64
2021/12/14 00:34:38;;;;;;;5.80;2.70;;;;;;;;;;5013326;28;20032;-64
2021/12/14 00:37:08;;;;;;;5.75;2.95;;;;;;;;;;5013134;28;20505;-65
2021/12/14 00:39:33;;;;;;;6.88;3.13;;;;;;;;;;5013371;28;20022;-66
2021/12/14 00:41:59;;;;;;;6.47;3.03;;;;;;;;;;5013048;28;20390;-65
2021/12/14 00:44:24;;;;;;;5.88;2.58;;;;;;;;;;5013060;28;20030;-66
2021/12/14 00:46:50;;;;;;;6.70;3.63;;;;;;;;;;5020890;28;20029;-66
2021/12/14 00:49:15;;;;;;;5.22;2.92;;;;;;;;;;5032849;28;20433;-66
2021/12/14 00:51:41;;;;;;;5.38;2.83;;;;;;;;;;5032358;28;20028;-66
2021/12/14 00:54:11;;;;;;;4.47;2.25;;;;;;;;;;5032812;28;20016;-66
2021/12/14 00:56:36;;;;;;;;;;;;;;;;;;5032802;28;20092;-66
2021/12/14 00:59:02;;;;;;;5.47;2.20;;;;;;;;;;5032749;28;19909;-66
2021/12/14 01:01:30;;;;;;;7.18;2.72;;;;;;;;;;5030079;28;20485;-66
2021/12/14 01:03:58;;;;;;;6.05;2.53;;;;;;;;;;5031675;28;20544;-66
2021/12/14 01:06:24;;;;;;;5.10;2.38;;;;;;;;;;5031928;28;20555;-66
2021/12/14 01:08:50;;;;;;;5.63;2.20;;;;;;;;;;5032456;28;20021;-66
2021/12/14 01:11:19;;;;;;;9.57;2.70;;;;;;;;;;5032182;28;20025;-66
2021/12/14 01:13:56;;;;;;;4.22;2.40;;;;;;;;;;5032375;28;20104;-66
2021/12/14 01:16:47;;;;;;;6.07;2.70;;;;;;;;;;5032618;28;20025;-66
2021/12/14 01:19:15;;;;;;;4.72;2.30;;;;;;;;;;5032522;28;20025;-66
2021/12/14 01:22:11;;;;;;;7.28;2.50;;;;;;;;;;5032002;28;20381;-66
2021/12/14 01:27:05;;;;;;;4.45;2.22;;;;;;;;;;5032059;28;20044;-66
2021/12/14 01:29:31;;;;;;;9.57;3.25;;;;;;;;;;5032283;28;20104;-66
2021/12/14 01:32:00;;;;;;;7.90;3.25;;;;;;;;;;5030558;28;20020;-66
2021/12/14 01:34:26;;;;;;;6.30;2.80;;;;;;;;;;5031760;28;20112;-66
2021/12/14 01:36:56;;;;;;;8.32;2.88;;;;;;;;;;5030805;28;20553;-66
2021/12/14 01:42:01;;;;;;;8.38;3.30;;;;;;;;;;5031054;28;20140;-66
2021/12/14 01:44:27;;;;;;;;;;;;;;;;;;5032406;28;20037;-65
2021/12/14 01:46:56;;;;;;;7.45;3.00;;;;;;;;;;5031358;28;19917;-65
2021/12/14 01:49:25;;;;;;;7.75;3.50;;;;;;;;;;5014241;28;20480;-64
2021/12/14 01:51:52;;;;;;;6.57;3.03;;;;;;;;;;5031625;28;20021;-65
2021/12/14 01:54:19;;;;;;;9.98;3.78;;;;;;;;;;5031849;28;20385;-66
2021/12/14 01:56:44;;;;;;;8.10;3.30;;;;;;;;;;5031909;28;20373;-65
2021/12/14 01:59:15;;;;;;;7.35;3.67;;;;;;;;;;5031176;28;20047;-66
2021/12/14 02:01:55;;;;;;;15.40;3.92;;;;;;;;;;5030893;28;20104;-64
2021/12/14 02:04:21;;;;;;;;;;;;;;;;;;5031624;28;20363;-65
2021/12/14 02:06:52;;;;;;;8.00;3.20;;;;;;;;;;5031081;28;20013;-66
2021/12/14 02:09:17;;;;;;;9.02;3.55;;;;;;;;;;5031312;28;20013;-66
2021/12/14 02:11:45;;;;;;;7.15;2.78;;;;;;;;;;5030739;28;20044;-65
2021/12/14 02:14:11;;;;;;;8.38;3.63;;;;;;;;;;5031219;28;20017;-65
2021/12/14 02:16:37;;;;;;;11.02;3.53;;;;;;;;;;5031271;28;20508;-66
2021/12/14 02:19:05;;;;;;;7.28;2.88;;;;;;;;;;5031298;28;20493;-66
2021/12/14 02:21:31;;;;;;;11.02;3.88;;;;;;;;;;5031084;28;20075;-65
2021/12/14 02:23:58;;;;;;;8.18;3.45;;;;;;;;;;5013279;28;20033;-65
2021/12/14 02:26:25;;;;;;;9.85;3.22;;;;;;;;;;5031121;28;20017;-65
2021/12/14 02:28:51;;;;;;;8.13;3.03;;;;;;;;;;5030630;28;20116;-65
2021/12/14 02:31:18;;;;;;;8.65;3.83;;;;;;;;;;5030949;28;20024;-65
2021/12/14 02:33:45;;;;;;;7.07;3.58;;;;;;;;;;5031047;28;20100;-66
2021/12/14 02:36:17;;;;;;;6.90;3.63;;;;;;;;;;5030813;28;20022;-65
2021/12/14 02:38:43;;;;;;;8.02;3.30;;;;;;;;;;5030999;28;20458;-65
2021/12/14 02:41:09;;;;;;;8.20;3.60;;;;;;;;;;5031082;28;20026;-66
2021/12/14 02:43:44;;;;;;;9.15;3.58;;;;;;;;;;5030704;28;20108;-65
2021/12/14 02:46:11;;;;;;;8.75;3.67;;;;;;;;;;5011033;28;20029;-66
2021/12/14 02:48:39;;;;;;;15.95;3.85;;;;;;;;;;4993382;28;20117;-65
2021/12/14 02:51:06;;;;;;;6.45;3.22;;;;;;;;;;5010807;28;20018;-65
2021/12/14 02:53:31;;;;;;;9.73;3.63;;;;;;;;;;5011077;28;20025;-66
2021/12/14 02:55:56;;;;;;;7.45;2.90;;;;;;;;;;4993440;28;20037;-64
2021/12/14 02:58:21;;;;;;;13.77;3.92;;;;;;;;;;4993329;28;20057;-65
2021/12/14 03:00:48;;;;;;;10.77;3.85;;;;;;;;;;5019506;28;20021;-65
2021/12/14 03:03:14;;;;;;;15.48;5.30;;;;;;;;;;5030800;28;20028;-66
2021/12/14 03:05:40;;;;;;;5.95;2.03;;;;;;;;;;5030515;28;20025;-65
2021/12/14 03:08:08;;;;;;;11.88;3.60;;;;;;;;;;5030435;28;20025;-65
2021/12/14 03:10:50;;;;;;;9.73;3.33;;;;;;;;;;5030342;28;20028;-65
2021/12/14 03:13:16;;;;;;;10.25;3.90;;;;;;;;;;5030590;28;20113;-65
2021/12/14 03:15:50;;;;;;;9.32;4.75;;;;;;;;;;5030233;28;20104;-65
2021/12/14 03:18:18;;;;;;;14.80;5.20;;;;;;;;;;5030337;28;20025;-65
2021/12/14 03:20:46;;;;;;;12.38;4.68;;;;;;;;;;5030202;28;20072;-66
2021/12/14 03:23:13;;;;;;;10.75;4.75;;;;;;;;;;5030589;28;20076;-65
2021/12/14 03:25:41;;;;;;;12.40;4.47;;;;;;;;;;5030664;28;20527;-66
2021/12/14 03:28:07;;;;;;;11.38;5.22;;;;;;;;;;5030407;28;20091;-66
2021/12/14 03:30:35;;;;;;;14.68;4.47;;;;;;;;;;5030166;28;20485;-66
2021/12/14 03:33:05;;;;;;;9.40;4.30;;;;;;;;;;5030160;28;20083;-65
2021/12/14 03:35:35;;;;;;;8.93;4.22;;;;;;;;;;5030385;28;20018;-65
2021/12/14 03:38:05;;;;;;;13.90;4.30;;;;;;;;;;5030660;28;20543;-65
2021/12/14 03:40:30;;;;;;;10.35;4.45;;;;;;;;;;5030282;28;20025;-65
2021/12/14 03:42:55;;;;;;;10.45;5.03;;;;;;;;;;5030202;28;20474;-65
2021/12/14 03:45:21;;;;;;;13.85;4.60;;;;;;;;;;5030364;28;20101;-66
2021/12/14 03:47:48;;;;;;;14.70;4.82;;;;;;;;;;5030245;28;20025;-65
2021/12/14 03:50:16;;;;;;;14.63;5.35;;;;;;;;;;5029582;28;20105;-65
2021/12/14 03:52:41;;;;;;;11.80;5.88;;;;;;;;;;5029995;28;20562;-65
2021/12/14 03:55:12;;;;;;;14.18;7.35;;;;;;;;;;5030167;28;20052;-65
2021/12/14 03:57:38;;;;;;;15.32;6.63;;;;;;;;;;5029838;28;20108;-65
2021/12/14 04:00:05;;;;;;;17.50;8.35;;;;;;;;;;5030726;28;20092;-66
2021/12/14 04:02:30;;;;;;;17.30;7.55;;;;;;;;;;5033761;28;20041;-65
2021/12/14 04:05:03;;;;;;;22.45;9.40;;;;;;;;;;5033298;28;20044;-66
2021/12/14 04:07:29;;;;;;;23.60;10.10;;;;;;;;;;5033072;28;20068;-65
2021/12/14 04:09:54;;;;;;;21.70;9.63;;;;;;;;;;5033686;28;20025;-65
2021/12/14 04:12:20;;;;;;;16.50;7.32;;;;;;;;;;5033754;28;20474;-65
2021/12/14 04:14:50;;;;;;;24.20;10.90;;;;;;;;;;5033776;28;20018;-65
2021/12/14 04:17:16;;;;;;;;;;;;;;;;;;5034156;28;20043;-66
2021/12/14 04:19:41;;;;;;;27.52;12.05;;;;;;;;;;5033306;28;19941;-66
2021/12/14 04:22:12;;;;;;;25.98;11.75;;;;;;;;;;5033388;28;20588;-65
2021/12/14 04:24:38;;;;;;;22.98;11.05;;;;;;;;;;5033550;28;20044;-65
2021/12/14 04:27:06;;;;;;;26.48;12.20;;;;;;;;;;5033323;28;20497;-65
2021/12/14 04:29:32;;;;;;;26.83;12.45;;;;;;;;;;5033409;28;20021;-66
2021/12/14 04:31:57;;;;;;;26.52;11.60;;;;;;;;;;5032991;28;20410;-66
2021/12/14 04:34:23;;;;;;;30.73;12.75;;;;;;;;;;5033377;28;20021;-65
2021/12/14 04:36:51;;;;;;;22.23;10.40;;;;;;;;;;5032328;28;20045;-65
2021/12/14 04:39:43;;;;;;;23.92;10.48;;;;;;;;;;5032275;28;20013;-66
2021/12/14 04:53:41;;;;;;;22.95;10.15;;;;;;;;;;5033358;28;20393;-65
2021/12/14 04:56:08;;;;;;;23.05;9.68;;;;;;;;;;5032826;28;20009;-66
2021/12/14 04:58:39;;;;;;;26.77;10.13;;;;;;;;;;5032895;28;20426;-66
2021/12/14 05:01:05;;;;;;;24.35;10.40;;;;;;;;;;5032670;28;20523;-65
2021/12/14 05:03:35;;;;;;;24.27;10.60;;;;;;;;;;5032560;28;20029;-65
2021/12/14 05:06:20;;;;;;;27.63;11.05;;;;;;;;;;5032494;28;20021;-65
2021/12/14 05:11:41;;;;;;;28.27;11.57;;;;;;;;;;5031073;28;20103;-66
2021/12/14 05:14:07;;;;;;;29.20;14.65;;;;;;;;;;5032623;28;20065;-65
2021/12/14 05:16:32;;;;;;;28.85;11.95;;;;;;;;;;5032445;28;20092;-66
2021/12/14 05:18:59;;;;;;;26.60;11.73;;;;;;;;;;5032388;28;20409;-65
2021/12/14 05:21:45;;;;;;;28.33;12.30;;;;;;;;;;5032206;28;20377;-65
2021/12/14 05:24:11;;;;;;;25.83;10.95;;;;;;;;;;5032437;28;20014;-66
2021/12/14 05:26:37;;;;;;;32.13;13.32;;;;;;;;;;5014110;28;20044;-65
2021/12/14 05:29:03;;;;;;;29.00;13.32;;;;;;;;;;5032413;28;20486;-66
2021/12/14 05:31:29;;;;;;;39.63;14.23;;;;;;;;;;5032133;28;20013;-66
2021/12/14 05:33:54;;;;;;;31.45;13.25;;;;;;;;;;5032217;28;20108;-66
2021/12/14 05:36:20;;;;;;;33.55;14.48;;;;;;;;;;5031739;28;20097;-66
2021/12/14 05:38:58;;;;;;;43.97;15.93;;;;;;;;;;5031928;28;20048;-65
2021/12/14 05:44:11;;;;;;;41.35;17.00;;;;;;;;;;5032090;28;20552;-65
2021/12/14 05:46:36;;;;;;;31.30;14.43;;;;;;;;;;5031332;28;20033;-65
2021/12/14 05:49:05;;;;;;;41.05;14.68;;;;;;;;;;5031854;28;20088;-66
2021/12/14 05:51:31;;;;;;;36.30;14.20;;;;;;;;;;5031372;28;20029;-65
2021/12/14 05:53:56;;;;;;;37.03;15.23;;;;;;;;;;5031847;28;20024;-65
2021/12/14 05:56:23;;;;;;;41.35;15.38;;;;;;;;;;5031104;28;20367;-65
2021/12/14 05:58:53;;;;;;;35.78;17.17;;;;;;;;;;5031820;28;20017;-66
2021/12/14 06:01:19;;;;;;;38.70;13.98;;;;;;;;;;5031061;28;20014;-66
2021/12/14 06:03:49;;;;;;;39.15;16.60;;;;;;;;;;5031432;28;20037;-66
2021/12/14 06:06:16;;;;;;;42.35;14.88;;;;;;;;;;5031286;28;20022;-66
2021/12/14 06:08:42;;;;;;;34.47;15.25;;;;;;;;;;5031433;28;20052;-66
2021/12/14 06:11:09;;;;;;;34.78;13.55;;;;;;;;;;5030885;28;20097;-66
2021/12/14 06:13:40;;;;;;;34.53;13.63;;;;;;;;;;5031203;28;20017;-66
2021/12/14 06:16:05;;;;;;;34.80;14.07;;;;;;;;;;5031137;28;20021;-67
2021/12/14 06:18:30;;;;;;;37.92;12.73;;;;;;;;;;5030782;28;20387;-67
2021/12/14 06:20:56;;;;;;;34.28;14.93;;;;;;;;;;5031107;28;20021;-66
2021/12/14 06:23:25;;;;;;;34.50;14.57;;;;;;;;;;5030758;28;20033;-67
2021/12/14 06:25:50;;;;;;;33.08;14.57;;;;;;;;;;5031024;28;20017;-66
2021/12/14 06:28:23;;;;;;;36.22;14.30;;;;;;;;;;5030701;28;20493;-67
2021/12/14 06:30:48;;;;;;;35.45;12.45;;;;;;;;;;5030844;28;20494;-67
2021/12/14 06:33:13;;;;;;;34.65;14.75;;;;;;;;;;5030703;28;20071;-67
2021/12/14 06:35:42;;;;;;;33.95;13.75;;;;;;;;;;5030925;28;20075;-66
2021/12/14 06:38:28;;;;;;;36.10;13.57;;;;;;;;;;5030730;28;20064;-66
2021/12/14 06:40:56;;;;;;;31.20;12.68;;;;;;;;;;5030560;28;20029;-66
2021/12/14 06:43:23;;;;;;;32.63;12.80;;;;;;;;;;5030501;28;20030;-67
2021/12/14 06:45:57;;;;;;;36.58;13.35;;;;;;;;;;5030576;28;20439;-65
2021/12/14 06:48:34;;;;;;;31.88;13.18;;;;;;;;;;5030356;28;20052;-66
2021/12/14 06:51:29;;;;;;;31.52;13.18;;;;;;;;;;5030072;28;20021;-67
2021/12/14 06:53:56;;;;;;;31.58;12.20;;;;;;;;;;5001530;28;20469;-66
2021/12/14 06:56:22;;;;;;;31.63;12.63;;;;;;;;;;5010659;28;20422;-66
2021/12/14 06:58:55;;;;;;;36.55;13.63;;;;;;;;;;5011085;28;20028;-67
2021/12/14 07:01:24;;;;;;;30.27;11.48;;;;;;;;;;5010285;28;20026;-67
2021/12/14 07:03:52;;;;;;;28.30;11.40;;;;;;;;;;5010968;28;20076;-66
2021/12/14 07:06:32;;;;;;;24.58;10.10;;;;;;;;;;5010891;28;20377;-67
2021/12/14 07:09:09;;;;;;;37.67;11.63;;;;;;;;;;5029899;28;20033;-67
2021/12/14 07:11:35;;;;;;;27.20;11.73;;;;;;;;;;5030423;28;20056;-66
2021/12/14 07:14:02;;;;;;;25.42;10.77;;;;;;;;;;5030602;28;20482;-67
2021/12/14 07:16:31;;;;;;;37.65;13.00;;;;;;;;;;5030438;28;20021;-66
2021/12/14 07:18:58;;;;;;;34.30;12.10;;;;;;;;;;5030427;28;20018;-66
2021/12/14 07:21:44;;;;;;;26.17;12.27;;;;;;;;;;5029995;28;20462;-64
2021/12/14 07:24:29;;;;;;;33.53;12.88;;;;;;;;;;5029896;28;20053;-66
2021/12/14 07:27:14;;;;;;;39.45;12.68;;;;;;;;;;5029739;28;20041;-66
2021/12/14 07:29:40;;;;;;;27.17;12.00;;;;;;;;;;5030328;28;20024;-66
2021/12/14 07:32:06;;;;;;;29.50;12.10;;;;;;;;;;5029896;28;20100;-67
2021/12/14 07:34:31;;;;;;;28.33;11.95;;;;;;;;;;5030175;28;20582;-67
2021/12/14 07:36:56;;;;;;;31.65;12.77;;;;;;;;;;5034157;28;20060;-67
2021/12/14 07:39:22;;;;;;;35.25;12.68;;;;;;;;;;5033963;28;20038;-67
2021/12/14 07:41:50;;;;;;;37.17;14.50;;;;;;;;;;5033811;28;20196;-66
2021/12/14 07:44:17;;;;;;;27.00;12.32;;;;;;;;;;5034174;28;20108;-67
2021/12/14 07:46:42;;;;;;;30.80;12.85;;;;;;;;;;5015852;28;20086;-67
2021/12/14 07:49:24;;;;;;;33.78;13.45;;;;;;;;;;5034172;28;20093;-66
2021/12/14 07:51:52;;;;;;;33.00;12.98;;;;;;;;;;5033967;28;20020;-66
2021/12/14 07:54:20;;;;;;;30.73;12.00;;;;;;;;;;5033692;28;20029;-67
2021/12/14 07:56:47;;;;;;;29.02;12.35;;;;;;;;;;5034009;28;20078;-66
2021/12/14 07:59:28;;;;;;;25.70;10.18;;;;;;;;;;5033835;28;20037;-66
2021/12/14 08:02:13;;;;;;;25.20;9.82;;;;;;;;;;5015854;28;20036;-64
2021/12/14 08:04:40;;;;;;;26.92;10.70;;;;;;;;;;5033162;28;20505;-65
2021/12/14 08:07:05;;;;;;;26.77;9.38;;;;;;;;;;5033373;28;20028;-66
2021/12/14 08:09:52;;;;;;;25.85;10.48;;;;;;;;;;5032987;28;20017;-65
2021/12/14 08:12:26;;;;;;;24.50;9.05;;;;;;;;;;5033151;28;20026;-65
2021/12/14 08:15:07;;;;;;;18.58;8.90;;;;;;;;;;5032169;28;20025;-65
2021/12/14 08:17:32;;;;;;;;;;;;;;;;;;5019057;28;20485;-65
2021/12/14 08:19:57;;;;;;;27.85;10.73;;;;;;;;;;5032696;28;20358;-65
2021/12/14 08:22:28;;;;;;;28.70;11.77;;;;;;;;;;5033081;28;20021;-65
2021/12/14 08:24:54;;;;;;;32.42;12.80;;;;;;;;;;5033606;28;20099;-65
2021/12/14 08:27:21;;;;;;;27.73;10.48;;;;;;;;;;5033057;28;20095;-66
2021/12/14 08:29:54;;;;;;;27.85;12.02;;;;;;;;;;5033452;28;20010;-65
2021/12/14 08:32:22;;;;;;;35.67;10.60;;;;;;;;;;5033022;28;20017;-65
2021/12/14 08:34:48;;;;;;;24.08;9.70;;;;;;;;;;5033621;28;20096;-65
2021/12/14 08:37:24;;;;;;;22.77;9.55;;;;;;;;;;5033042;28;20478;-65
2021/12/14 08:40:00;;;;;;;24.08;9.68;;;;;;;;;;5033235;28;20017;-65
2021/12/14 08:42:35;;;;;;;31.88;8.90;;;;;;;;;;5033025;28;20421;-65
2021/12/14 08:45:02;;;;;;;19.73;8.65;;;;;;;;;;5032500;28;20409;-65
2021/12/14 08:47:33;;;;;;;26.90;8.55;;;;;;;;;;5032511;28;20029;-66
2021/12/14 08:50:00;;;;;;;25.02;8.95;;;;;;;;;;5032809;28;20101;-66
2021/12/14 08:52:26;;;;;;;26.17;9.20;;;;;;;;;;5032783;28;20045;-65
2021/12/14 08:54:52;;;;;;;23.58;9.55;;;;;;;;;;5033022;28;20025;-65
2021/12/14 08:57:20;;;;;;;20.88;9.18;;;;;;;;;;5032755;28;20025;-65
2021/12/14 08:59:48;;;;;;;36.28;9.55;;;;;;;;;;5032691;28;20021;-66
2021/12/14 09:02:15;;;;;;;27.10;10.25;;;;;;;;;;5032488;28;20021;-65
2021/12/14 09:04:44;;;;;;;21.65;9.93;;;;;;;;;;5032778;28;20382;-65
2021/12/14 09:07:11;;;;;;;21.08;9.13;;;;;;;;;;5032330;28;20025;-65
2021/12/14 09:09:37;;;;;;;24.80;10.32;;;;;;;;;;5032867;28;20021;-65
2021/12/14 09:12:07;;;;;;;20.67;7.95;;;;;;;;;;5032346;28;20064;-65
2021/12/14 09:14:33;;;;;;;16.55;8.30;;;;;;;;;;5015077;28;20018;-65
2021/12/14 09:16:58;;;;;;;21.50;8.18;;;;;;;;;;5032350;28;20486;-65
2021/12/14 09:19:35;;;;;;;17.30;7.43;;;;;;;;;;5032571;28;20029;-65
2021/12/14 09:22:02;;;;;;;17.80;7.78;;;;;;;;;;5032252;28;20088;-65
2021/12/14 09:24:30;;;;;;;15.45;8.07;;;;;;;;;;5032429;28;20048;-65
2021/12/14 09:27:00;;;;;;;27.48;8.10;;;;;;;;;;5032184;28;20022;-65
2021/12/14 09:29:26;;;;;;;19.13;8.18;;;;;;;;;;5032174;28;20025;-65
2021/12/14 09:31:53;;;;;;;19.65;9.35;;;;;;;;;;5031876;28;20021;-65
2021/12/14 09:34:20;;;;;;;23.58;8.93;;;;;;;;;;5031637;28;20021;-66
2021/12/14 09:36:46;;;;;;;23.95;7.68;;;;;;;;;;5032019;28;20025;-65
2021/12/14 09:39:18;;;;;;;18.25;8.05;;;;;;;;;;5031894;28;20013;-65
2021/12/14 09:41:45;;;;;;;25.40;9.05;;;;;;;;;;5031724;28;20028;-65
2021/12/14 09:44:11;;;;;;;20.67;8.70;;;;;;;;;;5031902;28;20470;-66
2021/12/14 09:46:37;;;;;;;26.08;10.18;;;;;;;;;;5031695;28;20068;-66
2021/12/14 09:49:04;;;;;;;22.05;9.68;;;;;;;;;;5031581;28;20440;-66
2021/12/14 09:51:33;;;;;;;23.90;9.32;;;;;;;;;;5031516;28;20068;-65
2021/12/14 09:54:01;;;;;;;23.60;10.20;;;;;;;;;;5031853;28;20025;-65
2021/12/14 09:56:29;;;;;;;25.45;8.77;;;;;;;;;;5031517;28;20032;-65
2021/12/14 09:58:58;;;;;;;21.65;8.23;;;;;;;;;;5031059;28;20014;-65
2021/12/14 10:01:32;;;;;;;18.38;8.23;;;;;;;;;;5013605;28;20022;-65
2021/12/14 10:04:00;;;;;;;19.90;8.40;;;;;;;;;;5031524;28;20033;-65
2021/12/14 10:06:27;;;;;;;17.88;8.43;;;;;;;;;;5011812;28;20030;-65
2021/12/14 10:09:00;;;;;;;21.05;8.07;;;;;;;;;;5011851;28;20038;-65
2021/12/14 10:14:23;;;;;;;16.08;7.43;;;;;;;;;;4996102;28;20559;-66
2021/12/14 10:16:48;;;;;;;22.20;8.50;;;;;;;;;;5031485;28;20545;-65
2021/12/14 10:19:18;;;;;;;19.23;7.53;;;;;;;;;;5013367;28;20109;-65
2021/12/14 10:21:46;;;;;;;21.35;8.15;;;;;;;;;;5030823;28;20020;-65
2021/12/14 10:24:11;;;;;;;21.83;8.80;;;;;;;;;;5030945;28;20013;-66
2021/12/14 10:26:39;;;;;;;21.45;8.63;;;;;;;;;;5031080;28;20056;-66
2021/12/14 10:29:04;;;;;;;20.92;9.38;;;;;;;;;;5031060;28;20049;-65
2021/12/14 10:31:34;;;;;;;21.15;8.38;;;;;;;;;;5030788;28;20049;-65
2021/12/14 10:34:00;;;;;;;19.02;8.55;;;;;;;;;;5030299;28;20025;-65
2021/12/14 10:36:33;;;;;;;22.67;8.25;;;;;;;;;;5030747;28;20394;-65
2021/12/14 10:39:08;;;;;;;20.90;9.00;;;;;;;;;;5030448;28;20022;-65
2021/12/14 10:44:18;;;;;;;24.63;9.57;;;;;;;;;;5030950;28;20060;-65
2021/12/14 10:46:46;;;;;;;20.83;9.35;;;;;;;;;;5030852;28;20045;-66
2021/12/14 10:49:12;;;;;;;23.75;10.85;;;;;;;;;;5030761;28;20039;-65
2021/12/14 10:51:38;;;;;;;20.33;8.98;;;;;;;;;;5012968;28;20034;-66
2021/12/14 10:54:06;;;;;;;24.42;9.02;;;;;;;;;;5030379;28;20520;-66
2021/12/14 10:56:35;;;;;;;15.63;8.32;;;;;;;;;;5030730;28;20028;-65
2021/12/14 10:59:03;;;;;;;28.17;9.65;;;;;;;;;;5030635;28;20038;-66
2021/12/14 11:01:32;;;;;;;21.00;9.57;;;;;;;;;;5030375;28;20021;-65
2021/12/14 11:04:02;;;;;;;22.65;8.93;;;;;;;;;;5030678;28;20024;-65
2021/12/14 11:06:29;;;;;;;23.92;9.55;;;;;;;;;;5030359;28;20103;-65
2021/12/14 11:09:40;;;;;;;20.73;9.90;;;;;;;;;;5030493;28;20025;-65
2021/12/14 11:11:52;;;;;;;31.23;11.10;;;;;;;;;;5029288;28;20040;-65
2021/12/14 11:14:20;;;;;;;24.92;10.57;;;;;;;;;;5030385;28;20025;-65
2021/12/14 11:19:35;;;;;;;20.55;9.65;;;;;;;;;;5030409;28;20489;-64
2021/12/14 11:22:09;;;;;;;29.77;9.70;;;;;;;;;;5029925;28;20029;-64
2021/12/14 11:24:34;;;;;;;22.02;10.10;;;;;;;;;;5030404;28;20114;-65
2021/12/14 11:27:03;;;;;;;23.20;9.63;;;;;;;;;;5030073;28;20068;-65
2021/12/14 11:29:28;;;;;;;22.33;10.90;;;;;;;;;;5030411;28;20120;-65
2021/12/14 11:31:54;;;;;;;23.30;10.18;;;;;;;;;;5030444;28;20053;-65
2021/12/14 11:34:31;;;;;;;25.90;10.95;;;;;;;;;;5030205;28;20037;-65
2021/12/14 11:37:03;;;;;;;25.60;11.85;;;;;;;;;;5030516;28;20104;-65
2021/12/14 11:39:30;;;;;;;21.83;9.18;;;;;;;;;;5030313;28;20112;-66
2021/12/14 11:42:07;;;;;;;28.08;10.77;;;;;;;;;;5029994;28;20018;-65
2021/12/14 11:44:34;;;;;;;28.20;10.32;;;;;;;;;;5030005;28;20025;-65
2021/12/14 11:46:59;;;;;;;20.52;8.95;;;;;;;;;;5030203;28;20048;-67
2021/12/14 11:49:37;;;;;;;23.83;9.98;;;;;;;;;;5030146;28;20526;-65
2021/12/14 11:52:02;;;;;;;21.08;9.80;;;;;;;;;;5029824;28;20029;-65
2021/12/14 11:54:27;;;;;;;19.83;9.38;;;;;;;;;;5029816;28;20017;-66
2021/12/14 11:56:53;;;;;;;21.08;9.55;;;;;;;;;;5029534;28;20612;-65
2021/12/14 11:59:18;;;;;;;26.20;10.63;;;;;;;;;;5030079;28;20478;-65
2021/12/14 12:01:46;;;;;;;36.67;11.18;;;;;;;;;;5029202;28;20025;-66
2021/12/14 12:04:12;;;;;;;27.20;10.75;;;;;;;;;;5029920;28;20048;-67
2021/12/14 12:11:52;;;;;;;30.63;10.40;;;;;;;;;;5029866;28;20033;-67
2021/12/14 12:14:21;;;;;;;21.60;9.40;;;;;;;;;;5030055;28;20378;-67
2021/12/14 12:16:46;;;;;;;29.20;10.80;;;;;;;;;;5029934;28;20045;-67
2021/12/14 12:19:17;;;;;;;23.67;9.55;;;;;;;;;;5029731;28;20025;-67
2021/12/14 12:21:42;;;;;;;;;;;;;;;;;;5031896;28;20017;-67
2021/12/14 12:24:27;;;;;;;18.52;8.32;;;;;;;;;;5033447;28;20365;-67
2021/12/14 12:26:52;;;;;;;25.88;10.25;;;;;;;;;;5033274;28;20026;-67
2021/12/14 12:29:25;;;;;;;22.50;9.27;;;;;;;;;;5033270;28;20240;-67
2021/12/14 12:31:58;;;;;;;22.75;10.07;;;;;;;;;;5033236;28;20471;-67
2021/12/14 12:34:32;;;;;;;22.05;9.48;;;;;;;;;;5033220;28;20152;-67
2021/12/14 12:36:58;;;;;;;21.85;9.45;;;;;;;;;;5033240;28;20018;-66
2021/12/14 12:39:27;;;;;;;22.05;11.07;;;;;;;;;;5033193;28;20163;-66
2021/12/14 12:41:58;;;;;;;23.65;9.60;;;;;;;;;;5033058;28;20567;-66
2021/12/14 12:44:32;;;;;;;26.80;10.15;;;;;;;;;;5032832;28;20025;-66
2021/12/14 12:47:00;;;;;;;31.95;11.45;;;;;;;;;;5032278;28;20033;-66
2021/12/14 12:49:28;;;;;;;17.27;10.15;;;;;;;;;;5032879;28;20021;-66
2021/12/14 12:52:06;;;;;;;27.58;11.05;;;;;;;;;;5032566;28;20528;-66
2021/12/14 12:54:35;;;;;;;25.02;10.60;;;;;;;;;;5033091;28;20041;-66
2021/12/14 12:57:07;;;;;;;21.73;9.95;;;;;;;;;;5031271;28;20393;-66
2021/12/14 12:59:47;;;;;;;22.45;9.32;;;;;;;;;;5033441;28;20608;-67
2021/12/14 13:02:12;;;;;;;22.80;9.15;;;;;;;;;;5040605;28;20481;-66
2021/12/14 13:04:39;;;;;;;29.85;9.90;;;;;;;;;;5034668;28;20025;-65
2021/12/14 13:07:09;;;;;;;23.85;10.85;;;;;;;;;;5052546;28;20028;-66
2021/12/14 13:09:54;;;;;;;25.40;8.38;;;;;;;;;;5052459;28;20013;-66
2021/12/14 13:12:48;;;;;;;26.90;10.98;;;;;;;;;;5052298;28;20029;-66
2021/12/14 13:15:32;;;;;;;22.92;10.15;;;;;;;;;;5018767;28;20061;-66
2021/12/14 13:18:16;;;;;;;20.08;9.48;;;;;;;;;;5032487;28;20022;-66
2021/12/14 13:20:42;;;;;;;28.40;10.15;;;;;;;;;;5031987;28;20021;-66
2021/12/14 13:23:07;;;;;;;26.35;9.75;;;;;;;;;;5032522;28;20105;-65
2021/12/14 13:25:37;;;;;;;27.17;11.25;;;;;;;;;;5032250;28;20028;-66
2021/12/14 13:28:02;;;;;;;21.50;9.68;;;;;;;;;;5032171;28;20033;-65
2021/12/14 13:30:28;;;;;;;20.23;9.75;;;;;;;;;;5031665;28;20113;-66
2021/12/14 13:32:53;;;;;;;22.20;10.02;;;;;;;;;;5031098;28;20021;-66
2021/12/14 13:35:21;;;;;;;18.17;9.38;;;;;;;;;;5032213;28;20022;-65
2021/12/14 13:37:49;;;;;;;24.50;10.27;;;;;;;;;;5031794;28;20025;-66
2021/12/14 13:40:17;;;;;;;20.92;10.18;;;;;;;;;;5031734;28;20093;-66
2021/12/14 13:42:51;;;;;;;28.25;11.20;;;;;;;;;;5031457;28;20126;-67
2021/12/14 13:45:20;;;;;;;24.05;9.23;;;;;;;;;;5032046;28;20029;-66
2021/12/14 13:47:45;;;;;;;25.98;11.40;;;;;;;;;;5031791;28;20025;-66
2021/12/14 13:50:13;;;;;;;20.23;8.38;;;;;;;;;;5031662;28;20021;-66
2021/12/14 13:52:39;;;;;;;22.05;9.63;;;;;;;;;;5031835;28;20018;-66
2021/12/14 13:55:07;;;;;;;24.63;9.70;;;;;;;;;;5031791;28;20017;-65
2021/12/14 13:57:33;;;;;;;24.48;10.98;;;;;;;;;;5031604;28;20022;-66
2021/12/14 13:59:59;;;;;;;21.95;10.68;;;;;;;;;;5031359;28;20032;-66
2021/12/14 14:02:25;;;;;;;31.15;12.35;;;;;;;;;;5031307;28;20023;-66
2021/12/14 14:04:50;;;;;;;21.33;10.45;;;;;;;;;;5031573;28;20033;-65
2021/12/14 14:07:15;;;;;;;21.65;9.77;;;;;;;;;;5031230;28;20013;-66
2021/12/14 14:09:41;;;;;;;30.27;12.23;;;;;;;;;;5030864;28;20104;-66
2021/12/14 14:12:09;;;;;;;22.50;10.30;;;;;;;;;;5031266;28;20096;-66
2021/12/14 14:14:36;;;;;;;24.10;11.23;;;;;;;;;;5030655;28;20056;-66
2021/12/14 14:17:04;;;;;;;27.23;9.25;;;;;;;;;;5030988;28;20449;-66
2021/12/14 14:19:34;;;;;;;26.45;11.38;;;;;;;;;;5030580;28;20022;-66
2021/12/14 14:22:04;;;;;;;22.92;11.77;;;;;;;;;;5016000;28;20029;-66
2021/12/14 14:24:32;;;;;;;25.08;11.50;;;;;;;;;;5030986;28;20457;-66
2021/12/14 14:26:57;;;;;;;24.95;11.10;;;;;;;;;;5030199;28;20363;-66
2021/12/14 14:29:24;;;;;;;23.00;11.00;;;;;;;;;;5030922;28;20071;-65
2021/12/14 14:31:53;;;;;;;28.52;11.98;;;;;;;;;;5030032;28;20027;-66
2021/12/14 14:34:37;;;;;;;31.48;12.10;;;;;;;;;;5030967;28;20060;-66
2021/12/14 14:37:02;;;;;;;37.85;13.20;;;;;;;;;;5030848;28;20025;-66
2021/12/14 14:39:30;;;;;;;27.05;12.43;;;;;;;;;;5030639;28;20033;-66
2021/12/14 14:41:57;;;;;;;25.05;12.35;;;;;;;;;;5030487;28;20017;-66
2021/12/14 14:44:23;;;;;;;30.80;11.50;;;;;;;;;;5030709;28;20546;-66
2021/12/14 14:46:51;;;;;;;38.42;11.48;;;;;;;;;;5030640;28;20068;-67
2021/12/14 14:49:16;;;;;;;29.13;11.20;;;;;;;;;;5030453;28;20021;-66
2021/12/14 14:51:44;;;;;;;27.40;10.65;;;;;;;;;;5030381;28;20037;-67
2021/12/14 14:54:28;;;;;;;28.08;11.90;;;;;;;;;;5030582;28;20410;-65
2021/12/14 14:56:53;;;;;;;27.42;11.10;;;;;;;;;;5030766;28;20018;-67
2021/12/14 14:59:18;;;;;;;24.60;11.88;;;;;;;;;;5030300;28;20029;-67
2021/12/14 15:01:44;;;;;;;24.27;10.90;;;;;;;;;;5030292;28;20024;-66
2021/12/14 15:04:09;;;;;;;31.10;11.85;;;;;;;;;;5030696;28;20163;-67
2021/12/14 15:06:42;;;;;;;27.63;10.63;;;;;;;;;;5030277;28;20025;-67
2021/12/14 15:09:12;;;;;;;27.50;12.43;;;;;;;;;;5030451;28;20028;-67
2021/12/14 15:11:41;;;;;;;28.52;9.75;;;;;;;;;;5030113;28;20017;-67
2021/12/14 15:14:14;;;;;;;21.27;10.18;;;;;;;;;;5030304;28;20017;-67
2021/12/14 15:16:51;;;;;;;26.48;11.88;;;;;;;;;;5030056;28;20092;-67
2021/12/14 15:19:18;;;;;;;28.90;10.52;;;;;;;;;;5030450;28;20021;-67